sensor_id;sensor_type;location;lat;lon;timestamp;P1;P2;P0
76101;PMS7003;64830;46.910;6.354;2022-12-19T00:02:03;14.00;12.00;8.50
76101;PMS7003;64830;46.910;6.354;2022-12-19T00:04:28;12.25;12.25;7.50
76101;PMS7003;64830;46.910;6.354;2022-12-19T00:06:55;12.25;12.25;9.00
76101;PMS7003;64830;46.910;6.354;2022-12-19T00:09:22;13.75;13.75;8.00
76101;PMS7003;64830;46.910;6.354;2022-12-19T00:11:48;13.50;12.50;9.00
76101;PMS7003;64830;46.910;6.354;2022-12-19T00:14:13;13.75;12.00;8.25
76101;PMS7003;64830;46.910;6.354;2022-12-19T00:16:39;12.25;11.00;8.75
76101;PMS7003;64830;46.910;6.354;2022-12-19T00:19:04;14.25;13.50;8.00
76101;PMS7003;64830;46.910;6.354;2022-12-19T00:21:31;9.25;9.00;8.25
76101;PMS7003;64830;46.910;6.354;2022-12-19T00:23:58;13.00;9.75;5.00
76101;PMS7003;64830;46.910;6.354;2022-12-19T00:26:27;14.50;12.25;8.75
76101;PMS7003;64830;46.910;6.354;2022-12-19T00:28:55;16.00;12.00;7.00
76101;PMS7003;64830;46.910;6.354;2022-12-19T00:31:22;10.00;10.00;8.00
76101;PMS7003;64830;46.910;6.354;2022-12-19T00:33:49;9.75;9.75;6.00
76101;PMS7003;64830;46.910;6.354;2022-12-19T00:36:16;8.75;8.25;5.00
76101;PMS7003;64830;46.910;6.354;2022-12-19T00:38:44;8.00;6.00;4.00
76101;PMS7003;64830;46.910;6.354;2022-12-19T00:43:40;7.25;5.25;3.25
76101;PMS7003;64830;46.910;6.354;2022-12-19T00:46:08;4.00;4.00;3.75
76101;PMS7003;64830;46.910;6.354;2022-12-19T00:48:36;3.75;3.75;2.00
76101;PMS7003;64830;46.910;6.354;2022-12-19T00:51:02;6.50;5.50;5.00
76101;PMS7003;64830;46.910;6.354;2022-12-19T00:53:29;4.00;3.50;2.00
76101;PMS7003;64830;46.910;6.354;2022-12-19T00:55:54;0.50;0.50;0.50
76101;PMS7003;64830;46.910;6.354;2022-12-19T00:58:20;4.00;1.00;1.00
76101;PMS7003;64830;46.910;6.354;2022-12-19T01:00:46;5.00;2.00;1.50
76101;PMS7003;64830;46.910;6.354;2022-12-19T01:03:12;5.00;2.25;1.00
76101;PMS7003;64830;46.910;6.354;2022-12-19T01:05:37;1.00;1.00;1.00
76101;PMS7003;64830;46.910;6.354;2022-12-19T01:08:02;1.00;1.00;1.00
76101;PMS7003;64830;46.910;6.354;2022-12-19T01:10:28;1.00;1.00;1.00
76101;PMS7003;64830;46.910;6.354;2022-12-19T01:12:53;1.00;1.00;1.00
76101;PMS7003;64830;46.910;6.354;2022-12-19T01:15:19;1.25;1.25;1.00
76101;PMS7003;64830;46.910;6.354;2022-12-19T01:17:48;0.25;0.25;0.00
76101;PMS7003;64830;46.910;6.354;2022-12-19T01:20:15;0.00;0.00;0.00
76101;PMS7003;64830;46.910;6.354;2022-12-19T01:22:43;1.00;1.00;0.75
76101;PMS7003;64830;46.910;6.354;2022-12-19T01:25:09;2.00;0.25;0.25
76101;PMS7003;64830;46.910;6.354;2022-12-19T01:27:35;3.00;2.00;2.00
76101;PMS7003;64830;46.910;6.354;2022-12-19T01:30:00;1.50;1.50;1.00
76101;PMS7003;64830;46.910;6.354;2022-12-19T01:32:26;6.50;2.50;2.00
76101;PMS7003;64830;46.910;6.354;2022-12-19T01:34:51;2.00;2.00;1.75
76101;PMS7003;64830;46.910;6.354;2022-12-19T01:37:17;2.00;2.00;2.00
76101;PMS7003;64830;46.910;6.354;2022-12-19T01:39:43;2.75;2.75;2.00
76101;PMS7003;64830;46.910;6.354;2022-12-19T01:42:13;3.00;2.50;2.50
76101;PMS7003;64830;46.910;6.354;2022-12-19T01:47:49;2.25;1.25;1.00
76101;PMS7003;64830;46.910;6.354;2022-12-19T01:50:22;6.00;6.00;3.00
76101;PMS7003;64830;46.910;6.354;2022-12-19T01:53:10;6.00;3.50;1.75
76101;PMS7003;64830;46.910;6.354;2022-12-19T01:55:37;6.50;6.50;3.00
76101;PMS7003;64830;46.910;6.354;2022-12-19T01:58:05;7.25;6.75;3.50
76101;PMS7003;64830;46.910;6.354;2022-12-19T02:00:32;8.25;6.25;4.50
76101;PMS7003;64830;46.910;6.354;2022-12-19T02:03:08;11.50;9.25;6.75
76101;PMS7003;64830;46.910;6.354;2022-12-19T02:05:38;9.00;7.50;6.00
76101;PMS7003;64830;46.910;6.354;2022-12-19T02:08:05;6.75;6.00;5.00
76101;PMS7003;64830;46.910;6.354;2022-12-19T02:10:31;9.25;8.75;5.50
76101;PMS7003;64830;46.910;6.354;2022-12-19T02:12:56;9.00;6.75;4.50
76101;PMS7003;64830;46.910;6.354;2022-12-19T02:15:22;9.00;6.00;4.50
76101;PMS7003;64830;46.910;6.354;2022-12-19T02:18:04;8.00;7.25;5.75
76101;PMS7003;64830;46.910;6.354;2022-12-19T02:20:50;4.50;4.50;3.00
76101;PMS7003;64830;46.910;6.354;2022-12-19T02:32:26;7.75;6.25;3.25
76101;PMS7003;64830;46.910;6.354;2022-12-19T02:35:04;5.50;5.25;4.00
76101;PMS7003;64830;46.910;6.354;2022-12-19T02:37:36;7.50;6.00;2.25
76101;PMS7003;64830;46.910;6.354;2022-12-19T02:40:45;4.75;2.75;2.75
76101;PMS7003;64830;46.910;6.354;2022-12-19T02:43:16;4.25;4.25;3.25
76101;PMS7003;64830;46.910;6.354;2022-12-19T02:45:43;5.00;3.25;2.50
76101;PMS7003;64830;46.910;6.354;2022-12-19T02:48:10;10.00;4.50;3.25
76101;PMS7003;64830;46.910;6.354;2022-12-19T02:50:40;11.50;6.50;4.50
76101;PMS7003;64830;46.910;6.354;2022-12-19T02:53:09;6.00;4.25;2.00
76101;PMS7003;64830;46.910;6.354;2022-12-19T02:56:22;5.25;5.25;4.50
76101;PMS7003;64830;46.910;6.354;2022-12-19T03:06:43;2.25;1.00;0.00
76101;PMS7003;64830;46.910;6.354;2022-12-19T03:09:30;3.25;2.00;1.00
76101;PMS7003;64830;46.910;6.354;2022-12-19T03:12:22;0.75;0.75;0.50
76101;PMS7003;64830;46.910;6.354;2022-12-19T03:14:53;4.75;2.25;1.00
76101;PMS7003;64830;46.910;6.354;2022-12-19T03:17:20;2.00;2.00;1.25
76101;PMS7003;64830;46.910;6.354;2022-12-19T03:19:46;3.25;1.50;1.00
76101;PMS7003;64830;46.910;6.354;2022-12-19T03:22:11;1.75;1.75;1.00
76101;PMS7003;64830;46.910;6.354;2022-12-19T03:24:37;2.25;1.25;0.25
76101;PMS7003;64830;46.910;6.354;2022-12-19T03:29:59;2.50;1.25;1.00
76101;PMS7003;64830;46.910;6.354;2022-12-19T03:32:28;3.75;1.00;1.00
76101;PMS7003;64830;46.910;6.354;2022-12-19T03:37:27;1.50;1.00;0.75
76101;PMS7003;64830;46.910;6.354;2022-12-19T03:39:57;3.25;3.25;2.25
76101;PMS7003;64830;46.910;6.354;2022-12-19T03:42:26;2.00;2.00;1.00
76101;PMS7003;64830;46.910;6.354;2022-12-19T03:45:14;1.75;1.75;1.50
76101;PMS7003;64830;46.910;6.354;2022-12-19T03:47:46;1.00;1.00;1.00
76101;PMS7003;64830;46.910;6.354;2022-12-19T03:50:15;3.25;3.25;1.00
76101;PMS7003;64830;46.910;6.354;2022-12-19T03:53:00;2.50;2.50;2.00
76101;PMS7003;64830;46.910;6.354;2022-12-19T03:56:17;2.50;1.75;1.00
76101;PMS7003;64830;46.910;6.354;2022-12-19T03:58:32;4.00;2.00;1.00
76101;PMS7003;64830;46.910;6.354;2022-12-19T04:01:02;4.50;2.00;1.00
76101;PMS7003;64830;46.910;6.354;2022-12-19T04:03:29;4.25;1.75;1.00
76101;PMS7003;64830;46.910;6.354;2022-12-19T04:05:56;6.00;4.00;1.00
76101;PMS7003;64830;46.910;6.354;2022-12-19T04:08:24;3.00;1.75;1.00
76101;PMS7003;64830;46.910;6.354;2022-12-19T04:10:54;5.00;4.00;1.00
76101;PMS7003;64830;46.910;6.354;2022-12-19T04:13:27;4.50;4.00;2.00
76101;PMS7003;64830;46.910;6.354;2022-12-19T04:16:14;1.75;0.75;0.00
76101;PMS7003;64830;46.910;6.354;2022-12-19T04:18:46;5.00;4.00;2.00
76101;PMS7003;64830;46.910;6.354;2022-12-19T04:21:21;1.25;1.00;1.00
76101;PMS7003;64830;46.910;6.354;2022-12-19T04:23:52;6.50;4.75;4.75
76101;PMS7003;64830;46.910;6.354;2022-12-19T04:26:21;11.75;8.75;6.00
76101;PMS7003;64830;46.910;6.354;2022-12-19T04:28:49;5.25;5.25;5.00
76101;PMS7003;64830;46.910;6.354;2022-12-19T04:31:18;8.50;8.00;5.75
76101;PMS7003;64830;46.910;6.354;2022-12-19T04:33:44;6.00;4.75;3.50
76101;PMS7003;64830;46.910;6.354;2022-12-19T04:36:10;6.50;5.50;4.00
76101;PMS7003;64830;46.910;6.354;2022-12-19T04:38:36;5.00;5.00;4.00
76101;PMS7003;64830;46.910;6.354;2022-12-19T04:41:01;4.00;4.00;2.00
76101;PMS7003;64830;46.910;6.354;2022-12-19T04:43:26;5.50;4.50;4.00
76101;PMS7003;64830;46.910;6.354;2022-12-19T04:45:52;7.50;7.50;5.75
76101;PMS7003;64830;46.910;6.354;2022-12-19T04:48:17;13.00;8.00;5.00
76101;PMS7003;64830;46.910;6.354;2022-12-19T04:50:43;13.50;12.50;10.00
76101;PMS7003;64830;46.910;6.354;2022-12-19T04:53:08;18.50;13.00;9.50
76101;PMS7003;64830;46.910;6.354;2022-12-19T04:55:34;16.50;13.00;10.25
76101;PMS7003;64830;46.910;6.354;2022-12-19T04:58:00;17.00;16.75;12.00
76101;PMS7003;64830;46.910;6.354;2022-12-19T05:00:27;8.00;8.00;5.00
76101;PMS7003;64830;46.910;6.354;2022-12-19T05:02:52;12.50;9.50;8.00
76101;PMS7003;64830;46.910;6.354;2022-12-19T05:05:18;7.50;7.50;5.75
76101;PMS7003;64830;46.910;6.354;2022-12-19T05:07:43;8.50;8.50;6.00
76101;PMS7003;64830;46.910;6.354;2022-12-19T05:10:10;14.00;11.75;8.75
76101;PMS7003;64830;46.910;6.354;2022-12-19T05:12:36;8.50;7.00;5.50
76101;PMS7003;64830;46.910;6.354;2022-12-19T05:15:01;8.75;7.50;4.75
76101;PMS7003;64830;46.910;6.354;2022-12-19T05:17:27;9.00;9.00;6.00
76101;PMS7003;64830;46.910;6.354;2022-12-19T05:19:53;14.00;13.00;8.00
76101;PMS7003;64830;46.910;6.354;2022-12-19T05:22:18;12.75;11.50;8.00
76101;PMS7003;64830;46.910;6.354;2022-12-19T05:24:43;8.75;8.75;6.00
76101;PMS7003;64830;46.910;6.354;2022-12-19T05:27:09;12.25;8.00;6.00
76101;PMS7003;64830;46.910;6.354;2022-12-19T05:29:34;11.00;9.00;5.50
76101;PMS7003;64830;46.910;6.354;2022-12-19T05:31:59;12.75;8.75;5.75
76101;PMS7003;64830;46.910;6.354;2022-12-19T05:34:25;12.50;11.50;8.75
76101;PMS7003;64830;46.910;6.354;2022-12-19T05:36:50;8.00;8.00;6.00
76101;PMS7003;64830;46.910;6.354;2022-12-19T05:39:16;13.00;10.75;6.50
76101;PMS7003;64830;46.910;6.354;2022-12-19T05:41:41;10.25;10.25;8.00
76101;PMS7003;64830;46.910;6.354;2022-12-19T05:44:07;11.25;8.50;5.25
76101;PMS7003;64830;46.910;6.354;2022-12-19T05:46:33;7.50;7.50;5.25
76101;PMS7003;64830;46.910;6.354;2022-12-19T05:48:58;7.00;5.75;4.00
76101;PMS7003;64830;46.910;6.354;2022-12-19T05:51:24;5.00;5.00;4.00
76101;PMS7003;64830;46.910;6.354;2022-12-19T05:53:49;4.75;4.75;3.50
76101;PMS7003;64830;46.910;6.354;2022-12-19T05:56:16;5.00;5.00;4.00
76101;PMS7003;64830;46.910;6.354;2022-12-19T05:58:43;4.00;4.00;2.00
76101;PMS7003;64830;46.910;6.354;2022-12-19T06:01:17;6.00;5.00;2.00
76101;PMS7003;64830;46.910;6.354;2022-12-19T06:03:44;5.25;5.25;4.00
76101;PMS7003;64830;46.910;6.354;2022-12-19T06:06:11;6.00;6.00;4.00
76101;PMS7003;64830;46.910;6.354;2022-12-19T06:08:38;12.00;6.50;5.00
76101;PMS7003;64830;46.910;6.354;2022-12-19T06:11:04;7.00;7.00;4.50
76101;PMS7003;64830;46.910;6.354;2022-12-19T06:13:30;5.75;5.00;4.00
76101;PMS7003;64830;46.910;6.354;2022-12-19T06:16:00;5.00;5.00;4.00
76101;PMS7003;64830;46.910;6.354;2022-12-19T06:18:29;4.75;4.50;4.00
76101;PMS7003;64830;46.910;6.354;2022-12-19T06:20:59;8.00;8.00;4.50
76101;PMS7003;64830;46.910;6.354;2022-12-19T06:23:30;8.75;5.25;4.00
76101;PMS7003;64830;46.910;6.354;2022-12-19T06:25:57;4.75;4.75;2.50
76101;PMS7003;64830;46.910;6.354;2022-12-19T06:28:24;5.25;4.75;3.50
76101;PMS7003;64830;46.910;6.354;2022-12-19T06:30:50;8.00;5.00;4.00
76101;PMS7003;64830;46.910;6.354;2022-12-19T06:33:16;4.75;4.00;4.00
76101;PMS7003;64830;46.910;6.354;2022-12-19T06:35:41;7.50;7.50;5.00
76101;PMS7003;64830;46.910;6.354;2022-12-19T06:38:07;4.25;4.25;4.00
76101;PMS7003;64830;46.910;6.354;2022-12-19T06:40:32;12.25;12.00;5.75
76101;PMS7003;64830;46.910;6.354;2022-12-19T06:43:16;5.25;5.25;4.00
76101;PMS7003;64830;46.910;6.354;2022-12-19T06:45:42;6.00;5.50;4.75
76101;PMS7003;64830;46.910;6.354;2022-12-19T06:48:07;12.50;10.50;8.00
76101;PMS7003;64830;46.910;6.354;2022-12-19T06:50:33;7.25;7.25;5.00
76101;PMS7003;64830;46.910;6.354;2022-12-19T06:52:59;9.75;8.75;5.00
76101;PMS7003;64830;46.910;6.354;2022-12-19T06:55:25;8.50;7.75;5.75
76101;PMS7003;64830;46.910;6.354;2022-12-19T06:57:51;10.00;10.00;7.50
76101;PMS7003;64830;46.910;6.354;2022-12-19T07:00:16;9.50;9.50;8.00
76101;PMS7003;64830;46.910;6.354;2022-12-19T07:02:42;10.00;9.00;6.00
76101;PMS7003;64830;46.910;6.354;2022-12-19T07:05:10;8.75;8.75;6.00
76101;PMS7003;64830;46.910;6.354;2022-12-19T07:07:37;10.50;9.00;8.00
76101;PMS7003;64830;46.910;6.354;2022-12-19T07:10:03;11.00;6.00;4.25
76101;PMS7003;64830;46.910;6.354;2022-12-19T07:12:30;10.00;10.00;9.00
76101;PMS7003;64830;46.910;6.354;2022-12-19T07:14:55;9.00;9.00;6.75
76101;PMS7003;64830;46.910;6.354;2022-12-19T07:17:22;6.00;6.00;5.00
76101;PMS7003;64830;46.910;6.354;2022-12-19T07:19:49;5.00;5.00;4.00
76101;PMS7003;64830;46.910;6.354;2022-12-19T07:22:15;4.00;4.00;4.00
76101;PMS7003;64830;46.910;6.354;2022-12-19T07:24:41;6.00;6.00;4.25
76101;PMS7003;64830;46.910;6.354;2022-12-19T07:27:07;4.25;4.25;4.00
76101;PMS7003;64830;46.910;6.354;2022-12-19T07:29:32;10.25;8.75;5.75
76101;PMS7003;64830;46.910;6.354;2022-12-19T07:31:58;6.00;6.00;5.25
76101;PMS7003;64830;46.910;6.354;2022-12-19T07:34:23;5.25;5.25;4.00
76101;PMS7003;64830;46.910;6.354;2022-12-19T07:36:48;8.25;7.50;5.00
76101;PMS7003;64830;46.910;6.354;2022-12-19T07:39:14;6.75;5.75;5.00
76101;PMS7003;64830;46.910;6.354;2022-12-19T07:41:39;12.50;10.25;8.25
76101;PMS7003;64830;46.910;6.354;2022-12-19T07:44:05;10.75;8.50;6.50
76101;PMS7003;64830;46.910;6.354;2022-12-19T07:46:30;12.50;11.50;8.50
76101;PMS7003;64830;46.910;6.354;2022-12-19T07:48:56;15.00;11.50;8.00
76101;PMS7003;64830;46.910;6.354;2022-12-19T07:51:21;13.00;11.00;8.00
76101;PMS7003;64830;46.910;6.354;2022-12-19T07:53:47;15.25;12.75;8.50
76101;PMS7003;64830;46.910;6.354;2022-12-19T07:56:12;17.00;14.00;9.75
76101;PMS7003;64830;46.910;6.354;2022-12-19T07:58:38;15.00;13.50;10.50
76101;PMS7003;64830;46.910;6.354;2022-12-19T08:01:04;17.25;17.25;12.00
76101;PMS7003;64830;46.910;6.354;2022-12-19T08:03:30;18.50;16.50;11.50
76101;PMS7003;64830;46.910;6.354;2022-12-19T08:06:00;21.00;16.75;10.25
76101;PMS7003;64830;46.910;6.354;2022-12-19T08:08:26;17.75;15.75;9.75
76101;PMS7003;64830;46.910;6.354;2022-12-19T08:10:55;19.75;17.50;13.00
76101;PMS7003;64830;46.910;6.354;2022-12-19T08:13:21;21.25;14.25;9.00
76101;PMS7003;64830;46.910;6.354;2022-12-19T08:15:47;13.50;12.00;8.75
76101;PMS7003;64830;46.910;6.354;2022-12-19T08:18:12;12.75;8.75;5.25
76101;PMS7003;64830;46.910;6.354;2022-12-19T08:20:38;12.25;11.00;8.75
76101;PMS7003;64830;46.910;6.354;2022-12-19T08:23:03;15.50;15.00;9.00
76101;PMS7003;64830;46.910;6.354;2022-12-19T08:25:29;11.00;11.00;8.00
76101;PMS7003;64830;46.910;6.354;2022-12-19T08:27:54;14.50;13.75;9.50
76101;PMS7003;64830;46.910;6.354;2022-12-19T08:30:19;13.25;13.25;10.00
76101;PMS7003;64830;46.910;6.354;2022-12-19T08:32:45;13.50;12.00;8.75
76101;PMS7003;64830;46.910;6.354;2022-12-19T08:35:10;12.75;12.00;10.25
76101;PMS7003;64830;46.910;6.354;2022-12-19T08:37:36;9.50;8.75;5.00
76101;PMS7003;64830;46.910;6.354;2022-12-19T08:40:01;10.00;10.00;7.75
76101;PMS7003;64830;46.910;6.354;2022-12-19T08:42:27;9.00;9.00;6.00
76101;PMS7003;64830;46.910;6.354;2022-12-19T08:44:52;11.75;9.25;6.00
76101;PMS7003;64830;46.910;6.354;2022-12-19T08:47:18;9.25;6.00;4.00
76101;PMS7003;64830;46.910;6.354;2022-12-19T08:49:43;12.75;8.25;6.00
76101;PMS7003;64830;46.910;6.354;2022-12-19T08:52:08;9.25;9.25;8.00
76101;PMS7003;64830;46.910;6.354;2022-12-19T08:54:34;13.00;11.00;6.00
76101;PMS7003;64830;46.910;6.354;2022-12-19T08:56:59;12.50;10.75;8.00
76101;PMS7003;64830;46.910;6.354;2022-12-19T08:59:24;19.50;16.50;12.25
76101;PMS7003;64830;46.910;6.354;2022-12-19T09:01:50;13.25;13.25;10.50
76101;PMS7003;64830;46.910;6.354;2022-12-19T09:04:16;15.75;15.00;10.00
76101;PMS7003;64830;46.910;6.354;2022-12-19T09:06:41;18.00;14.00;10.50
76101;PMS7003;64830;46.910;6.354;2022-12-19T09:09:07;12.25;12.00;9.25
76101;PMS7003;64830;46.910;6.354;2022-12-19T09:11:32;8.00;8.00;6.00
76101;PMS7003;64830;46.910;6.354;2022-12-19T09:13:58;10.50;10.00;7.75
76101;PMS7003;64830;46.910;6.354;2022-12-19T09:16:25;13.75;12.25;6.50
76101;PMS7003;64830;46.910;6.354;2022-12-19T09:18:52;12.75;12.75;9.75
76101;PMS7003;64830;46.910;6.354;2022-12-19T09:21:20;12.75;11.75;9.00
76101;PMS7003;64830;46.910;6.354;2022-12-19T09:23:48;17.75;13.00;9.50
76101;PMS7003;64830;46.910;6.354;2022-12-19T09:26:15;15.75;15.25;10.50
76101;PMS7003;64830;46.910;6.354;2022-12-19T09:28:41;11.50;9.50;5.25
76101;PMS7003;64830;46.910;6.354;2022-12-19T09:31:09;13.25;13.00;9.25
76101;PMS7003;64830;46.910;6.354;2022-12-19T09:33:38;16.75;13.50;9.00
76101;PMS7003;64830;46.910;6.354;2022-12-19T09:36:03;9.25;9.25;6.25
76101;PMS7003;64830;46.910;6.354;2022-12-19T09:38:30;9.75;7.00;6.75
76101;PMS7003;64830;46.910;6.354;2022-12-19T09:46:19;6.00;6.00;4.50
76101;PMS7003;64830;46.910;6.354;2022-12-19T09:48:55;5.00;4.50;3.00
76101;PMS7003;64830;46.910;6.354;2022-12-19T09:56:39;6.00;6.00;5.00
76101;PMS7003;64830;46.910;6.354;2022-12-19T10:01:55;6.00;6.00;5.00
76101;PMS7003;64830;46.910;6.354;2022-12-19T10:04:41;5.25;4.75;4.00
76101;PMS7003;64830;46.910;6.354;2022-12-19T10:07:13;3.00;3.00;2.00
76101;PMS7003;64830;46.910;6.354;2022-12-19T10:09:41;6.50;3.50;2.25
76101;PMS7003;64830;46.910;6.354;2022-12-19T10:14:59;5.00;5.00;4.50
76101;PMS7003;64830;46.910;6.354;2022-12-19T10:25:28;5.25;3.25;2.75
76101;PMS7003;64830;46.910;6.354;2022-12-19T10:28:15;7.00;5.50;5.00
76101;PMS7003;64830;46.910;6.354;2022-12-19T10:31:06;24.00;17.50;9.25
76101;PMS7003;64830;46.910;6.354;2022-12-19T10:36:38;18.50;11.75;7.75
76101;PMS7003;64830;46.910;6.354;2022-12-19T10:39:11;18.50;16.50;9.50
76101;PMS7003;64830;46.910;6.354;2022-12-19T10:41:48;15.00;11.50;8.75
76101;PMS7003;64830;46.910;6.354;2022-12-19T10:44:20;18.75;13.50;7.00
76101;PMS7003;64830;46.910;6.354;2022-12-19T10:46:50;14.00;12.00;8.00
76101;PMS7003;64830;46.910;6.354;2022-12-19T10:49:21;11.75;11.75;7.75
76101;PMS7003;64830;46.910;6.354;2022-12-19T10:54:46;23.25;19.00;13.00
76101;PMS7003;64830;46.910;6.354;2022-12-19T10:57:20;18.25;17.75;13.00
76101;PMS7003;64830;46.910;6.354;2022-12-19T11:00:00;21.75;17.50;13.00
76101;PMS7003;64830;46.910;6.354;2022-12-19T11:05:05;27.00;20.25;14.00
76101;PMS7003;64830;46.910;6.354;2022-12-19T11:11:08;27.25;22.50;15.00
76101;PMS7003;64830;46.910;6.354;2022-12-19T11:13:57;18.50;14.75;12.00
76101;PMS7003;64830;46.910;6.354;2022-12-19T11:16:11;20.25;18.75;14.00
76101;PMS7003;64830;46.910;6.354;2022-12-19T11:21:22;19.25;16.00;13.00
76101;PMS7003;64830;46.910;6.354;2022-12-19T11:23:54;21.75;17.25;13.50
76101;PMS7003;64830;46.910;6.354;2022-12-19T11:29:04;18.75;18.75;14.25
76101;PMS7003;64830;46.910;6.354;2022-12-19T11:31:40;22.25;19.50;14.00
76101;PMS7003;64830;46.910;6.354;2022-12-19T11:34:12;21.75;15.50;12.00
76101;PMS7003;64830;46.910;6.354;2022-12-19T11:36:51;19.25;17.00;13.00
76101;PMS7003;64830;46.910;6.354;2022-12-19T11:39:45;17.75;16.75;13.00
76101;PMS7003;64830;46.910;6.354;2022-12-19T11:47:47;15.00;15.00;11.00
76101;PMS7003;64830;46.910;6.354;2022-12-19T11:53:26;10.75;9.00;7.25
76101;PMS7003;64830;46.910;6.354;2022-12-19T11:56:13;7.00;7.00;5.00
76101;PMS7003;64830;46.910;6.354;2022-12-19T11:59:03;5.00;4.50;4.25
76101;PMS7003;64830;46.910;6.354;2022-12-19T12:06:50;7.00;5.00;4.00
76101;PMS7003;64830;46.910;6.354;2022-12-19T12:19:58;6.00;6.00;5.00
76101;PMS7003;64830;46.910;6.354;2022-12-19T12:23:01;8.75;5.25;4.25
76101;PMS7003;64830;46.910;6.354;2022-12-19T12:34:02;3.00;3.00;2.00
76101;PMS7003;64830;46.910;6.354;2022-12-19T12:37:20;1.00;1.00;1.00
76101;PMS7003;64830;46.910;6.354;2022-12-19T12:45:22;0.00;0.00;0.00
76101;PMS7003;64830;46.910;6.354;2022-12-19T12:47:54;1.00;0.00;0.00
76101;PMS7003;64830;46.910;6.354;2022-12-19T12:50:21;0.75;0.00;0.00
76101;PMS7003;64830;46.910;6.354;2022-12-19T12:52:49;0.00;0.00;0.00
76101;PMS7003;64830;46.910;6.354;2022-12-19T12:55:27;0.00;0.00;0.00
76101;PMS7003;64830;46.910;6.354;2022-12-19T12:57:58;0.00;0.00;0.00
76101;PMS7003;64830;46.910;6.354;2022-12-19T13:10:55;0.00;0.00;0.00
76101;PMS7003;64830;46.910;6.354;2022-12-19T13:19:14;0.00;0.00;0.00
76101;PMS7003;64830;46.910;6.354;2022-12-19T13:30:27;0.00;0.00;0.00
76101;PMS7003;64830;46.910;6.354;2022-12-19T13:37:45;0.00;0.00;0.00
76101;PMS7003;64830;46.910;6.354;2022-12-19T13:40:29;1.00;1.00;1.00
76101;PMS7003;64830;46.910;6.354;2022-12-19T13:42:58;0.00;0.00;0.00
76101;PMS7003;64830;46.910;6.354;2022-12-19T13:45:54;0.00;0.00;0.00
76101;PMS7003;64830;46.910;6.354;2022-12-19T13:48:36;0.00;0.00;0.00
76101;PMS7003;64830;46.910;6.354;2022-12-19T13:51:08;0.75;0.00;0.00
76101;PMS7003;64830;46.910;6.354;2022-12-19T13:53:35;0.00;0.00;0.00
76101;PMS7003;64830;46.910;6.354;2022-12-19T13:56:02;0.00;0.00;0.00
76101;PMS7003;64830;46.910;6.354;2022-12-19T13:58:35;0.00;0.00;0.00
76101;PMS7003;64830;46.910;6.354;2022-12-19T14:01:12;0.00;0.00;0.00
76101;PMS7003;64830;46.910;6.354;2022-12-19T14:03:41;0.00;0.00;0.00
76101;PMS7003;64830;46.910;6.354;2022-12-19T14:06:10;0.25;0.25;0.25
76101;PMS7003;64830;46.910;6.354;2022-12-19T14:08:44;0.00;0.00;0.00
76101;PMS7003;64830;46.910;6.354;2022-12-19T14:11:11;1.00;0.00;0.00
76101;PMS7003;64830;46.910;6.354;2022-12-19T14:13:42;1.00;1.00;1.00
76101;PMS7003;64830;46.910;6.354;2022-12-19T14:16:30;2.25;1.00;1.00
76101;PMS7003;64830;46.910;6.354;2022-12-19T14:18:55;1.50;1.50;1.00
76101;PMS7003;64830;46.910;6.354;2022-12-19T14:21:22;2.00;2.00;2.00
76101;PMS7003;64830;46.910;6.354;2022-12-19T14:23:51;4.00;4.00;3.00
76101;PMS7003;64830;46.910;6.354;2022-12-19T14:26:50;2.00;2.00;2.00
76101;PMS7003;64830;46.910;6.354;2022-12-19T14:29:21;5.00;2.00;2.00
76101;PMS7003;64830;46.910;6.354;2022-12-19T14:31:53;2.00;2.00;2.00
76101;PMS7003;64830;46.910;6.354;2022-12-19T14:34:20;3.00;2.00;2.00
76101;PMS7003;64830;46.910;6.354;2022-12-19T14:36:53;2.00;2.00;1.00
76101;PMS7003;64830;46.910;6.354;2022-12-19T14:39:22;2.00;2.00;1.25
76101;PMS7003;64830;46.910;6.354;2022-12-19T14:41:52;1.75;1.75;1.75
76101;PMS7003;64830;46.910;6.354;2022-12-19T14:44:45;1.00;1.00;1.00
76101;PMS7003;64830;46.910;6.354;2022-12-19T14:47:22;1.00;1.00;1.00
76101;PMS7003;64830;46.910;6.354;2022-12-19T14:49:50;1.00;1.00;0.25
76101;PMS7003;64830;46.910;6.354;2022-12-19T14:55:14;7.50;4.25;3.75
76101;PMS7003;64830;46.910;6.354;2022-12-19T14:57:52;1.00;1.00;1.00
76101;PMS7003;64830;46.910;6.354;2022-12-19T15:02:47;1.00;1.00;1.00
76101;PMS7003;64830;46.910;6.354;2022-12-19T15:05:13;1.00;1.00;1.00
76101;PMS7003;64830;46.910;6.354;2022-12-19T15:07:41;3.00;3.00;2.25
76101;PMS7003;64830;46.910;6.354;2022-12-19T15:10:14;2.00;2.00;1.75
76101;PMS7003;64830;46.910;6.354;2022-12-19T15:16:02;2.00;2.00;1.75
76101;PMS7003;64830;46.910;6.354;2022-12-19T15:18:39;3.00;3.00;2.00
76101;PMS7003;64830;46.910;6.354;2022-12-19T15:21:06;14.75;11.50;9.75
76101;PMS7003;64830;46.910;6.354;2022-12-19T15:23:34;12.50;10.25;7.75
76101;PMS7003;64830;46.910;6.354;2022-12-19T15:26:01;8.00;8.00;6.25
76101;PMS7003;64830;46.910;6.354;2022-12-19T15:31:11;17.00;13.75;10.00
76101;PMS7003;64830;46.910;6.354;2022-12-19T15:33:58;29.25;23.50;16.75
76101;PMS7003;64830;46.910;6.354;2022-12-19T15:36:25;27.00;23.50;18.50
76101;PMS7003;64830;46.910;6.354;2022-12-19T15:38:50;30.00;27.75;21.75
76101;PMS7003;64830;46.910;6.354;2022-12-19T15:41:19;35.00;33.50;23.75
76101;PMS7003;64830;46.910;6.354;2022-12-19T15:43:47;43.00;37.75;25.75
76101;PMS7003;64830;46.910;6.354;2022-12-19T15:46:12;53.00;43.25;27.75
76101;PMS7003;64830;46.910;6.354;2022-12-19T15:48:39;39.00;34.50;23.00
76101;PMS7003;64830;46.910;6.354;2022-12-19T15:51:12;49.25;39.75;27.75
76101;PMS7003;64830;46.910;6.354;2022-12-19T15:53:37;35.75;35.00;24.50
76101;PMS7003;64830;46.910;6.354;2022-12-19T15:56:03;29.25;27.50;20.50
76101;PMS7003;64830;46.910;6.354;2022-12-19T15:58:29;34.50;32.50;23.25
76101;PMS7003;64830;46.910;6.354;2022-12-19T16:00:58;33.25;28.50;21.50
76101;PMS7003;64830;46.910;6.354;2022-12-19T16:03:26;40.75;33.25;23.00
76101;PMS7003;64830;46.910;6.354;2022-12-19T16:05:52;33.50;31.00;23.00
76101;PMS7003;64830;46.910;6.354;2022-12-19T16:08:19;29.25;24.75;18.00
76101;PMS7003;64830;46.910;6.354;2022-12-19T16:10:47;16.50;15.50;11.25
76101;PMS7003;64830;46.910;6.354;2022-12-19T16:13:22;17.50;13.75;11.50
76101;PMS7003;64830;46.910;6.354;2022-12-19T16:15:49;11.00;11.00;9.75
76101;PMS7003;64830;46.910;6.354;2022-12-19T16:18:16;15.00;14.00;11.50
76101;PMS7003;64830;46.910;6.354;2022-12-19T16:20:43;12.00;12.00;9.50
76101;PMS7003;64830;46.910;6.354;2022-12-19T16:23:08;16.25;15.25;12.25
76101;PMS7003;64830;46.910;6.354;2022-12-19T16:25:44;17.00;16.25;10.75
76101;PMS7003;64830;46.910;6.354;2022-12-19T16:28:16;19.00;16.00;12.75
76101;PMS7003;64830;46.910;6.354;2022-12-19T16:30:47;29.50;23.50;15.00
76101;PMS7003;64830;46.910;6.354;2022-12-19T16:33:47;27.00;24.00;18.75
76101;PMS7003;64830;46.910;6.354;2022-12-19T16:36:07;20.50;19.25;14.75
76101;PMS7003;64830;46.910;6.354;2022-12-19T16:38:33;24.00;24.00;19.00
76101;PMS7003;64830;46.910;6.354;2022-12-19T16:40:59;28.00;25.50;20.50
76101;PMS7003;64830;46.910;6.354;2022-12-19T16:43:35;28.00;23.00;17.50
76101;PMS7003;64830;46.910;6.354;2022-12-19T16:46:05;28.25;26.00;17.75
76101;PMS7003;64830;46.910;6.354;2022-12-19T16:48:32;22.75;22.50;15.00
76101;PMS7003;64830;46.910;6.354;2022-12-19T16:51:00;20.75;18.00;14.00
76101;PMS7003;64830;46.910;6.354;2022-12-19T16:53:25;19.75;18.00;13.25
76101;PMS7003;64830;46.910;6.354;2022-12-19T16:55:51;22.50;17.50;12.50